createdAt,value
2022-12-11T00:02:22.681Z,99452.56
2022-12-11T00:05:24.759Z,99430.81
2022-12-11T00:08:26.887Z,99437.59
2022-12-11T00:11:29.035Z,99438.41
2022-12-11T00:14:32.118Z,99414.56
2022-12-11T00:17:34.040Z,99415.97
2022-12-11T00:20:37.974Z,99410.03
2022-12-11T00:23:40.714Z,99410.66
2022-12-11T00:26:42.771Z,99405.25
2022-12-11T00:29:45.055Z,99394.19
2022-12-11T00:32:47.179Z,99387.47
2022-12-11T00:35:49.542Z,99391.75
2022-12-11T00:38:53.063Z,99378.75
2022-12-11T00:41:55.362Z,99371.50
2022-12-11T00:44:58.045Z,99378.06
2022-12-11T00:48:00.288Z,99379.38
2022-12-11T00:51:02.325Z,99372.56
2022-12-11T00:54:04.516Z,99369.25
2022-12-11T00:57:06.521Z,99368.28
2022-12-11T01:00:09.115Z,99356.84
2022-12-11T01:03:13.640Z,99354.38
2022-12-11T01:06:18.946Z,99359.22
2022-12-11T01:09:39.712Z,99338.69
2022-12-11T01:12:41.792Z,99331.41
2022-12-11T01:15:46.210Z,99338.44
2022-12-11T01:18:48.231Z,99338.88
2022-12-11T01:21:50.205Z,99339.25
2022-12-11T01:24:52.307Z,99329.69
2022-12-11T01:27:56.197Z,99322.84
2022-12-11T01:30:58.411Z,99312.22
2022-12-11T01:34:00.495Z,99308.56
2022-12-11T01:37:02.716Z,99299.09
2022-12-11T01:40:06.949Z,99291.63
2022-12-11T01:43:12.040Z,99244.81
2022-12-11T01:46:14.122Z,99273.56
2022-12-11T01:49:19.033Z,99286.84
2022-12-11T01:52:22.726Z,99277.28
2022-12-11T01:55:25.016Z,99279.94
2022-12-11T01:58:35.371Z,99278.72
2022-12-11T02:01:45.340Z,99281.19
2022-12-11T02:04:49.687Z,99283.13
2022-12-11T02:07:58.904Z,99264.72
2022-12-11T02:11:17.366Z,99260.22
2022-12-11T02:14:30.482Z,99265.34
2022-12-11T02:17:44.443Z,99276.66
2022-12-11T02:21:08.180Z,99275.69
2022-12-11T02:24:27.418Z,99288.59
2022-12-11T02:27:36.760Z,99265.53
2022-12-11T02:30:42.052Z,99265.09
2022-12-11T02:33:57.016Z,99254.16
2022-12-11T02:37:04.510Z,99260.09
2022-12-11T02:40:11.365Z,99225.91
2022-12-11T02:43:16.232Z,99237.97
2022-12-11T02:46:21.840Z,99225.31
2022-12-11T02:49:25.278Z,99226.31
2022-12-11T02:52:29.697Z,99229.25
2022-12-11T02:55:34.694Z,99229.06
2022-12-11T02:58:43.219Z,99241.53
2022-12-11T03:01:46.625Z,99248.53
2022-12-11T03:04:50.586Z,99244.31
2022-12-11T03:07:52.562Z,99236.78
2022-12-11T03:10:55.031Z,99217.72
2022-12-11T03:14:00.350Z,99214.97
2022-12-11T03:17:17.424Z,99220.19
2022-12-11T03:20:33.618Z,99218.88
2022-12-11T03:23:49.061Z,99217.84
2022-12-11T03:26:57.268Z,99198.94
2022-12-11T03:30:14.396Z,99203.50
2022-12-11T03:33:24.841Z,99193.09
2022-12-11T03:36:33.626Z,99197.53
2022-12-11T03:39:43.814Z,99187.03
2022-12-11T03:42:49.848Z,99183.47
2022-12-11T03:45:53.913Z,99158.38
2022-12-11T03:49:02.262Z,99151.47
2022-12-11T03:52:06.214Z,99143.16
2022-12-11T03:55:10.912Z,99135.88
2022-12-11T03:58:13.125Z,99126.41
2022-12-11T04:01:15.406Z,99131.00
2022-12-11T04:04:17.586Z,99121.78
2022-12-11T04:07:19.741Z,99130.66
2022-12-11T04:10:21.753Z,99121.63
2022-12-11T04:13:23.890Z,99126.03
2022-12-11T04:16:25.898Z,99112.75
2022-12-11T04:20:06.550Z,99111.03
2022-12-11T04:23:33.354Z,99081.25
2022-12-11T04:26:35.380Z,99064.31
2022-12-11T04:29:37.349Z,99073.66
2022-12-11T04:32:39.547Z,99062.13
2022-12-11T04:35:41.582Z,99052.34
2022-12-11T04:38:43.620Z,99047.53
2022-12-11T04:41:45.564Z,99042.50
2022-12-11T04:44:47.698Z,99042.75
2022-12-11T04:47:49.680Z,99033.41
2022-12-11T04:50:51.675Z,99032.09
2022-12-11T04:53:53.753Z,99027.94
2022-12-11T04:56:55.788Z,99019.13
2022-12-11T04:59:57.759Z,99027.78
2022-12-11T05:02:59.920Z,99011.94
2022-12-11T05:06:02.039Z,99018.41
2022-12-11T05:09:04.397Z,99024.88
2022-12-11T05:12:06.439Z,99012.41
2022-12-11T05:15:09.164Z,99011.22
2022-12-11T05:18:11.583Z,99012.84
2022-12-11T05:21:15.304Z,99014.22
2022-12-11T05:24:17.423Z,99019.75
2022-12-11T05:27:19.534Z,99011.34
2022-12-11T05:30:21.466Z,98999.13
2022-12-11T05:33:24.193Z,98990.84
2022-12-11T05:36:32.306Z,98989.22
2022-12-11T05:39:34.366Z,98974.50
2022-12-11T05:42:36.391Z,98984.25
2022-12-11T05:45:39.054Z,98980.78
2022-12-11T05:48:42.072Z,98985.63
2022-12-11T05:51:44.245Z,98976.69
2022-12-11T05:54:50.077Z,98992.75
2022-12-11T05:57:52.143Z,98981.53
2022-12-11T06:00:54.517Z,98970.78
2022-12-11T06:03:57.978Z,98984.22
2022-12-11T06:07:00.758Z,98974.44
2022-12-11T06:10:02.766Z,98958.69
2022-12-11T06:13:04.971Z,98946.47
2022-12-11T06:16:09.031Z,98952.53
2022-12-11T06:19:15.979Z,98943.28
2022-12-11T06:22:18.340Z,98942.47
2022-12-11T06:25:20.312Z,98932.09
2022-12-11T06:28:22.451Z,98920.84
2022-12-11T06:31:24.488Z,98914.91
2022-12-11T06:34:26.554Z,98927.47
2022-12-11T06:37:28.554Z,98911.00
2022-12-11T06:40:31.022Z,98900.38
2022-12-11T06:43:34.726Z,98889.22
2022-12-11T06:46:36.738Z,98894.63
2022-12-11T06:49:38.698Z,98892.59
2022-12-11T06:52:40.943Z,98893.75
2022-12-11T06:55:43.776Z,98888.72
2022-12-11T06:58:46.037Z,98911.19
2022-12-11T07:01:48.427Z,98893.50
2022-12-11T07:04:54.938Z,98871.09
2022-12-11T07:07:57.637Z,98860.91
2022-12-11T07:11:08.128Z,98848.75
2022-12-11T07:14:10.156Z,98825.66
2022-12-11T07:17:13.677Z,98824.91
2022-12-11T07:20:16.040Z,98825.66
2022-12-11T07:23:18.110Z,98819.88
2022-12-11T07:26:22.371Z,98835.97
2022-12-11T07:29:24.707Z,98837.09
2022-12-11T07:32:27.015Z,98815.84
2022-12-11T07:35:29.113Z,98841.09
2022-12-11T07:38:31.233Z,98827.69
2022-12-11T07:41:33.478Z,98820.66
2022-12-11T07:44:35.598Z,98834.81
2022-12-11T07:47:37.663Z,98828.47
2022-12-11T07:50:40.085Z,98824.25
2022-12-11T07:53:47.459Z,98830.94
2022-12-11T07:56:53.477Z,98816.59
2022-12-11T07:59:56.059Z,98825.06
2022-12-11T08:02:58.108Z,98806.00
2022-12-11T08:06:00.155Z,98796.72
2022-12-11T08:09:06.238Z,98809.16
2022-12-11T08:12:08.285Z,98805.84
2022-12-11T08:15:11.124Z,98791.25
2022-12-11T08:18:15.157Z,98783.31
2022-12-11T08:21:20.679Z,98783.41
2022-12-11T08:24:22.908Z,98786.59
2022-12-11T08:27:24.917Z,98789.41
2022-12-11T08:30:27.346Z,98763.28
2022-12-11T08:33:29.466Z,98771.28
2022-12-11T08:36:33.146Z,98763.56
2022-12-11T08:39:35.691Z,98765.78
2022-12-11T08:42:40.584Z,98746.50
2022-12-11T08:45:42.727Z,98741.16
2022-12-11T08:48:46.443Z,98730.50
2022-12-11T08:51:48.438Z,98733.53
2022-12-11T08:54:50.517Z,98709.97
2022-12-11T08:57:53.609Z,98699.38
2022-12-11T09:00:58.384Z,98683.44
2022-12-11T09:04:00.480Z,98683.34
2022-12-11T09:07:02.549Z,98671.94
2022-12-11T09:10:06.482Z,98684.13
2022-12-11T09:13:08.706Z,98660.38
2022-12-11T09:16:17.242Z,98685.78
2022-12-11T09:19:19.393Z,98680.34
2022-12-11T09:22:21.650Z,98666.44
2022-12-11T09:25:23.798Z,98678.75
2022-12-11T09:28:26.181Z,98658.91
2022-12-11T09:31:31.657Z,98646.94
2022-12-11T09:34:34.210Z,98651.06
2022-12-11T09:37:36.376Z,98652.69
2022-12-11T09:40:43.470Z,98645.88
2022-12-11T09:43:50.877Z,98666.88
2022-12-11T09:46:53.019Z,98662.25
2022-12-11T09:50:15.640Z,98652.16
2022-12-11T09:53:37.139Z,98641.53
2022-12-11T09:56:41.977Z,98644.00
2022-12-11T10:00:17.977Z,98657.91
2022-12-11T10:03:48.723Z,98659.28
2022-12-11T10:07:02.601Z,98672.38
2022-12-11T10:10:57.440Z,98655.88
2022-12-11T10:14:38.450Z,98629.22
2022-12-11T10:17:42.226Z,98623.84
2022-12-11T10:20:45.468Z,98622.50
2022-12-11T10:23:56.642Z,98618.72
2022-12-11T10:27:10.454Z,98591.84
2022-12-11T10:30:16.070Z,98600.47
2022-12-11T10:33:50.364Z,98605.66
2022-12-11T10:37:00.202Z,98600.16
2022-12-11T10:40:02.839Z,98603.34
2022-12-11T10:43:05.306Z,98591.03
2022-12-11T10:46:20.355Z,98585.88
2022-12-11T10:49:28.486Z,98579.84
2022-12-11T10:52:38.246Z,98570.56
2022-12-11T10:55:48.576Z,98588.88
2022-12-11T10:58:52.232Z,98592.00
2022-12-11T11:01:54.642Z,98599.88
2022-12-11T11:04:59.306Z,98597.03
2022-12-11T11:08:22.597Z,98593.91
2022-12-11T11:11:24.559Z,98599.75
2022-12-11T11:14:26.723Z,98592.66
2022-12-11T11:17:33.772Z,98601.75
2022-12-11T11:20:37.227Z,98584.03
2022-12-11T11:23:46.235Z,98598.06
2022-12-11T11:27:12.879Z,98608.81
2022-12-11T11:30:23.154Z,98636.34
2022-12-11T11:33:25.681Z,98644.69
2022-12-11T11:36:30.902Z,98642.16
2022-12-11T11:39:40.302Z,98634.50
2022-12-11T11:43:04.263Z,98638.59
2022-12-11T11:46:13.995Z,98641.50
2022-12-11T11:49:16.739Z,98643.53
2022-12-11T11:52:55.266Z,98636.44
2022-12-11T11:56:06.130Z,98668.13
2022-12-11T11:59:27.147Z,98672.19
2022-12-11T12:02:29.466Z,98677.50
2022-12-11T12:05:39.588Z,98685.19
2022-12-11T12:09:03.561Z,98698.13
2022-12-11T12:12:27.417Z,98695.75
2022-12-11T12:15:54.928Z,98710.59
2022-12-11T12:19:36.878Z,98724.25
2022-12-11T12:23:00.645Z,98729.44
2022-12-11T12:26:17.362Z,98715.34
2022-12-11T12:29:35.375Z,98736.41
2022-12-11T12:32:54.192Z,98755.09
2022-12-11T12:36:21.667Z,98750.72
2022-12-11T12:39:35.033Z,98739.03
2022-12-11T12:43:00.128Z,98750.13
2022-12-11T12:46:11.737Z,98743.44
2022-12-11T12:49:33.819Z,98763.97
2022-12-11T12:52:39.002Z,98788.06
2022-12-11T12:55:41.820Z,98761.34
2022-12-11T12:58:46.861Z,98784.88
2022-12-11T13:01:55.480Z,98769.25
2022-12-11T13:05:07.540Z,98786.22
2022-12-11T13:08:11.561Z,98785.03
2022-12-11T13:11:18.203Z,98792.78
2022-12-11T13:14:21.301Z,98782.69
2022-12-11T13:17:37.021Z,98788.88
2022-12-11T13:20:51.236Z,98785.81
2022-12-11T13:23:53.355Z,98783.38
2022-12-11T13:26:55.959Z,98796.69
2022-12-11T13:30:16.218Z,98804.16
2022-12-11T13:33:19.526Z,98808.94
2022-12-11T13:36:24.543Z,98828.16
2022-12-11T13:39:32.733Z,98819.78
2022-12-11T13:42:44.193Z,98828.03
2022-12-11T13:45:50.620Z,98843.06
2022-12-11T13:48:57.479Z,98845.09
2022-12-11T13:52:00.946Z,98828.03
2022-12-11T13:55:17.359Z,98837.78
2022-12-11T13:58:21.741Z,98835.38
2022-12-11T14:01:31.992Z,98838.41
2022-12-11T14:04:35.073Z,98847.28
2022-12-11T14:07:42.535Z,98858.56
2022-12-11T14:10:44.567Z,98855.03
2022-12-11T14:13:46.900Z,98840.50
2022-12-11T14:16:51.160Z,98858.00
2022-12-11T14:19:54.825Z,98879.09
2022-12-11T14:23:18.512Z,98868.03
2022-12-11T14:26:29.389Z,98904.13
2022-12-11T14:29:33.407Z,98918.34
2022-12-11T14:32:43.007Z,98915.97
2022-12-11T14:35:46.844Z,98926.56
2022-12-11T14:39:04.935Z,98927.19
2022-12-11T14:42:20.058Z,98938.03
2022-12-11T14:45:44.413Z,98930.72
2022-12-11T14:49:10.022Z,98937.31
2022-12-11T14:52:32.545Z,98946.75
2022-12-11T14:55:38.250Z,98959.38
2022-12-11T14:58:45.606Z,98964.22
2022-12-11T15:01:57.861Z,98974.28
2022-12-11T15:05:11.481Z,98975.56
2022-12-11T15:08:13.666Z,98992.44
2022-12-11T15:11:18.121Z,99004.97
2022-12-11T15:14:22.277Z,99011.31
2022-12-11T15:17:28.550Z,99024.19
2022-12-11T15:20:30.941Z,99023.09
2022-12-11T15:23:57.973Z,99036.06
2022-12-11T15:27:01.289Z,99044.00
2022-12-11T15:30:31.137Z,99055.56
2022-12-11T15:33:47.096Z,99053.50
2022-12-11T15:36:49.052Z,99050.09
2022-12-11T15:39:52.514Z,99051.53
2022-12-11T15:42:55.291Z,99075.91
2022-12-11T15:46:02.163Z,99090.19
2022-12-11T15:49:12.982Z,99092.19
2022-12-11T15:52:15.033Z,99095.03
2022-12-11T15:55:20.762Z,99107.25
2022-12-11T15:58:24.674Z,99120.81
2022-12-11T16:01:26.839Z,99113.03
2022-12-11T16:04:28.919Z,99127.06
2022-12-11T16:07:31.006Z,99131.28
2022-12-11T16:10:32.927Z,99148.88
2022-12-11T16:13:37.075Z,99143.19
2022-12-11T16:16:39.141Z,99172.34
2022-12-11T16:19:42.716Z,99181.44
2022-12-11T16:22:44.870Z,99165.16
2022-12-11T16:25:47.438Z,99186.63
2022-12-11T16:28:49.522Z,99201.00
2022-12-11T16:31:51.657Z,99204.06
2022-12-11T16:34:54.224Z,99205.56
2022-12-11T16:37:56.538Z,99229.31
2022-12-11T16:41:04.649Z,99236.97
2022-12-11T16:44:07.057Z,99220.69
2022-12-11T16:47:09.187Z,99229.16
2022-12-11T16:50:13.994Z,99221.31
2022-12-11T16:53:17.691Z,99249.34
2022-12-11T16:56:19.701Z,99263.25
2022-12-11T16:59:21.661Z,99246.44
2022-12-11T17:02:26.134Z,99253.94
2022-12-11T17:05:28.145Z,99260.13
2022-12-11T17:08:30.275Z,99262.25
2022-12-11T17:11:32.311Z,99277.34
2022-12-11T17:14:34.460Z,99293.03
2022-12-11T17:17:36.568Z,99300.66
2022-12-11T17:21:15.835Z,99299.22
2022-12-11T17:24:49.729Z,99294.72
2022-12-11T17:27:51.704Z,99306.94
2022-12-11T17:30:54.281Z,99325.59
2022-12-11T17:34:00.709Z,99310.69
2022-12-11T17:37:02.969Z,99322.28
2022-12-11T17:40:05.581Z,99332.88
2022-12-11T17:43:09.545Z,99330.41
2022-12-11T17:46:12.103Z,99333.38
2022-12-11T17:49:14.126Z,99338.41
2022-12-11T17:52:27.305Z,99338.19
2022-12-11T17:55:31.650Z,99335.06
2022-12-11T17:58:37.302Z,99321.56
2022-12-11T18:01:39.421Z,99335.84
2022-12-11T18:04:42.462Z,99318.69
2022-12-11T18:07:44.569Z,99328.25
2022-12-11T18:10:48.072Z,99332.09
2022-12-11T18:13:53.676Z,99325.75
2022-12-11T18:16:55.917Z,99349.81
2022-12-11T18:19:58.041Z,99372.59
2022-12-11T18:23:01.723Z,99385.00
2022-12-11T18:26:03.868Z,99377.22
2022-12-11T18:29:07.451Z,99378.69
2022-12-11T18:32:09.632Z,99384.28
2022-12-11T18:35:12.297Z,99367.16
2022-12-11T18:38:16.729Z,99359.47
2022-12-11T18:41:20.160Z,99367.72
2022-12-11T18:44:22.846Z,99356.06
2022-12-11T18:47:26.371Z,99371.19
2022-12-11T18:50:28.426Z,99359.69
2022-12-11T18:53:32.852Z,99385.53
2022-12-11T18:56:35.067Z,99373.44
2022-12-11T18:59:37.385Z,99375.69
2022-12-11T19:02:39.592Z,99375.84
2022-12-11T19:05:45.668Z,99358.25
2022-12-11T19:08:48.253Z,99359.41
2022-12-11T19:11:50.260Z,99371.91
2022-12-11T19:14:52.331Z,99392.38
2022-12-11T19:17:54.393Z,99385.06
2022-12-11T19:21:08.053Z,99420.28
2022-12-11T19:24:18.164Z,99410.91
2022-12-11T19:27:22.636Z,99391.03
2022-12-11T19:30:24.996Z,99392.00
2022-12-11T19:33:28.511Z,99392.97
2022-12-11T19:36:31.795Z,99377.84
2022-12-11T19:39:33.953Z,99409.53
2022-12-11T19:42:36.118Z,99415.53
2022-12-11T19:45:38.771Z,99399.31
2022-12-11T19:48:41.933Z,99387.34
2022-12-11T19:51:44.118Z,99397.94
2022-12-11T19:54:46.421Z,99427.53
2022-12-11T19:57:48.473Z,99432.19
2022-12-11T20:00:50.684Z,99432.19
2022-12-11T20:03:55.044Z,99453.16
2022-12-11T20:06:57.344Z,99431.94
2022-12-11T20:10:00.526Z,99446.06
2022-12-11T20:13:02.961Z,99457.13
2022-12-11T20:16:06.720Z,99472.97
2022-12-11T20:19:09.062Z,99498.69
2022-12-11T20:22:11.704Z,99508.78
2022-12-11T20:25:14.196Z,99514.56
2022-12-11T20:28:16.527Z,99493.44
2022-12-11T20:31:28.166Z,99473.88
2022-12-11T20:34:30.439Z,99503.72
2022-12-11T20:37:32.680Z,99527.94
2022-12-11T20:40:39.430Z,99505.72
2022-12-11T20:43:43.123Z,99497.78
2022-12-11T20:46:45.351Z,99512.31
2022-12-11T20:49:49.303Z,99493.13
2022-12-11T20:52:51.918Z,99514.94
2022-12-11T20:55:54.833Z,99521.16
2022-12-11T20:58:58.502Z,99501.03
2022-12-11T21:02:00.634Z,99481.69
2022-12-11T21:05:03.611Z,99480.66
2022-12-11T21:08:06.009Z,99477.56
2022-12-11T21:11:09.309Z,99467.59
2022-12-11T21:14:11.489Z,99462.81
2022-12-11T21:17:13.528Z,99458.03
2022-12-11T21:20:15.651Z,99458.47
2022-12-11T21:23:17.892Z,99463.03
2022-12-11T21:26:20.734Z,99465.13
2022-12-11T21:29:28.043Z,99470.50
2022-12-11T21:32:30.404Z,99466.13
2022-12-11T21:35:32.942Z,99487.53
2022-12-11T21:38:34.968Z,99477.56
2022-12-11T21:41:36.990Z,99478.78
2022-12-11T21:48:01.187Z,99484.81
2022-12-11T21:51:08.851Z,99500.38
2022-12-11T21:54:14.499Z,99503.25
2022-12-11T21:57:20.049Z,99509.06
2022-12-11T22:00:24.913Z,99491.63
2022-12-11T22:03:27.313Z,99510.94
2022-12-11T22:06:29.563Z,99511.38
2022-12-11T22:09:31.571Z,99508.25
2022-12-11T22:12:33.934Z,99525.03
2022-12-11T22:15:36.015Z,99548.72
2022-12-11T22:18:38.396Z,99564.06
2022-12-11T22:21:41.079Z,99565.91
2022-12-11T22:24:43.039Z,99564.06
2022-12-11T22:27:46.083Z,99570.47
2022-12-11T22:30:48.318Z,99587.88
2022-12-11T22:33:53.800Z,99590.38
2022-12-11T22:36:56.395Z,99590.47
2022-12-11T22:39:58.715Z,99601.94
2022-12-11T22:43:00.878Z,99615.84
2022-12-11T22:46:03.420Z,99606.56
2022-12-11T22:49:05.572Z,99604.03
2022-12-11T22:52:07.570Z,99616.31
2022-12-11T22:55:09.808Z,99617.09
2022-12-11T22:58:12.422Z,99601.53
2022-12-11T23:01:22.439Z,99624.78
2022-12-11T23:04:24.892Z,99606.25
2022-12-11T23:07:27.350Z,99604.44
2022-12-11T23:10:29.450Z,99582.00
2022-12-11T23:13:31.501Z,99590.06
2022-12-11T23:16:33.900Z,99594.84
2022-12-11T23:19:36.507Z,99596.53
2022-12-11T23:22:38.718Z,99610.06
2022-12-11T23:25:40.938Z,99600.97
2022-12-11T23:28:42.993Z,99600.66
2022-12-11T23:31:45.204Z,99607.16
2022-12-11T23:34:47.371Z,99628.75
2022-12-11T23:37:49.448Z,99621.88
2022-12-11T23:40:52.463Z,99637.25
2022-12-11T23:43:54.844Z,99644.28
2022-12-11T23:46:56.907Z,99655.84
2022-12-11T23:49:59.044Z,99657.38
2022-12-11T23:53:01.172Z,99655.41
2022-12-11T23:56:06.311Z,99675.72
2022-12-11T23:59:12.609Z,99680.28
